createdAt,value
2023-12-30T00:01:48.403Z,96299.81
2023-12-30T00:04:16.048Z,96299.81
2023-12-30T00:06:44.539Z,96295.53
2023-12-30T00:09:12.133Z,96305.13
2023-12-30T00:11:39.726Z,96295.75
2023-12-30T00:14:07.402Z,96301.31
2023-12-30T00:16:35.104Z,96299.72
2023-12-30T00:19:04.096Z,96301.53
2023-12-30T00:21:31.685Z,96297.84
2023-12-30T00:23:59.324Z,96291.97
2023-12-30T00:26:28.116Z,96295.66
2023-12-30T00:28:55.737Z,96289.78
2023-12-30T00:31:24.935Z,96293.00
2023-12-30T00:33:53.598Z,96285.81
2023-12-30T00:36:22.597Z,96296.69
2023-12-30T00:38:50.427Z,96292.66
2023-12-30T00:41:18.555Z,96291.03
2023-12-30T00:43:46.149Z,96297.97
2023-12-30T00:46:13.774Z,96291.59
2023-12-30T00:48:41.487Z,96300.63
2023-12-30T00:51:09.101Z,96300.84
2023-12-30T00:53:38.019Z,96295.78
2023-12-30T00:56:05.788Z,96290.47
2023-12-30T00:58:33.399Z,96296.56
2023-12-30T01:01:01.370Z,96299.47
2023-12-30T01:03:29.033Z,96300.47
2023-12-30T01:05:56.727Z,96299.47
2023-12-30T01:08:24.370Z,96304.19
2023-12-30T01:10:53.394Z,96293.56
2023-12-30T01:13:21.080Z,96297.81
2023-12-30T01:15:48.873Z,96291.72
2023-12-30T01:18:16.701Z,96298.28
2023-12-30T01:20:44.384Z,96298.28
2023-12-30T01:23:12.052Z,96302.00
2023-12-30T01:25:39.905Z,96302.00
2023-12-30T01:28:09.068Z,96305.44
2023-12-30T01:30:38.550Z,96303.50
2023-12-30T01:33:07.522Z,96311.22
2023-12-30T01:35:35.903Z,96314.34
2023-12-30T01:38:06.018Z,96310.66
2023-12-30T01:40:34.709Z,96318.84
2023-12-30T01:43:04.310Z,96316.41
2023-12-30T01:45:33.745Z,96318.28
2023-12-30T01:48:03.217Z,96323.81
2023-12-30T01:50:30.967Z,96324.63
2023-12-30T01:52:58.715Z,96327.84
2023-12-30T01:55:26.488Z,96328.28
2023-12-30T01:57:54.180Z,96335.47
2023-12-30T02:00:22.462Z,96339.13
2023-12-30T02:02:51.668Z,96346.09
2023-12-30T02:05:19.508Z,96351.59
2023-12-30T02:07:48.217Z,96343.06
2023-12-30T02:10:16.423Z,96350.41
2023-12-30T02:12:45.670Z,96349.63
2023-12-30T02:15:14.762Z,96346.97
2023-12-30T02:17:42.829Z,96355.16
2023-12-30T02:20:12.819Z,96344.75
2023-12-30T02:22:45.232Z,96351.09
2023-12-30T02:25:12.940Z,96350.75
2023-12-30T02:27:40.594Z,96351.78
2023-12-30T02:30:09.043Z,96345.66
2023-12-30T02:32:36.695Z,96346.13
2023-12-30T02:35:04.812Z,96352.47
2023-12-30T02:37:32.625Z,96357.75
2023-12-30T02:40:01.822Z,96360.66
2023-12-30T02:42:29.435Z,96361.69
2023-12-30T02:44:57.142Z,96360.28
2023-12-30T02:47:24.773Z,96358.69
2023-12-30T02:49:52.378Z,96360.53
2023-12-30T02:52:20.029Z,96352.78
2023-12-30T02:54:47.670Z,96353.00
2023-12-30T02:57:16.677Z,96350.34
2023-12-30T02:59:44.240Z,96357.75
2023-12-30T03:02:11.933Z,96359.59
2023-12-30T03:04:39.638Z,96354.28
2023-12-30T03:07:07.431Z,96360.63
2023-12-30T03:09:35.188Z,96360.63
2023-12-30T03:12:03.475Z,96359.81
2023-12-30T03:14:32.630Z,96351.03
2023-12-30T03:17:00.254Z,96352.09
2023-12-30T03:19:27.925Z,96340.63
2023-12-30T03:21:55.766Z,96343.91
2023-12-30T03:24:23.380Z,96352.09
2023-12-30T03:26:54.371Z,96349.66
2023-12-30T03:29:22.091Z,96349.88
2023-12-30T03:31:51.063Z,96347.00
2023-12-30T03:34:18.746Z,96339.84
2023-12-30T03:36:46.365Z,96342.94
2023-12-30T03:39:15.148Z,96335.78
2023-12-30T03:41:42.719Z,96331.53
2023-12-30T03:44:10.314Z,96335.44
2023-12-30T03:46:39.441Z,96337.06
2023-12-30T03:49:08.393Z,96338.66
2023-12-30T03:51:36.085Z,96338.66
2023-12-30T03:54:03.635Z,96337.06
2023-12-30T03:56:32.754Z,96332.19
2023-12-30T03:59:00.793Z,96334.03
2023-12-30T04:01:28.631Z,96338.31
2023-12-30T04:03:56.259Z,96336.69
2023-12-30T04:06:25.296Z,96338.75
2023-12-30T04:08:52.971Z,96346.72
2023-12-30T04:11:20.690Z,96346.72
2023-12-30T04:13:48.409Z,96338.75
2023-12-30T04:16:16.155Z,96342.25
2023-12-30T04:18:43.845Z,96340.03
2023-12-30T04:21:11.462Z,96338.75
2023-12-30T04:23:40.451Z,96355.94
2023-12-30T04:26:08.053Z,96350.88
2023-12-30T04:28:36.541Z,96350.66
2023-12-30T04:31:04.385Z,96343.72
2023-12-30T04:33:32.099Z,96350.41
2023-12-30T04:35:59.750Z,96341.84
2023-12-30T04:38:27.330Z,96346.59
2023-12-30T04:40:56.786Z,96347.38
2023-12-30T04:43:24.453Z,96347.38
2023-12-30T04:45:52.137Z,96347.84
2023-12-30T04:48:19.810Z,96350.50
2023-12-30T04:50:47.428Z,96350.50
2023-12-30T04:53:15.017Z,96353.75
2023-12-30T04:55:43.176Z,96349.47
2023-12-30T04:58:12.255Z,96357.88
2023-12-30T05:00:40.171Z,96351.75
2023-12-30T05:03:08.137Z,96348.28
2023-12-30T05:05:36.140Z,96351.16
2023-12-30T05:08:06.177Z,96348.94
2023-12-30T05:10:34.867Z,96352.66
2023-12-30T05:13:03.223Z,96346.53
2023-12-30T05:15:32.549Z,96353.69
2023-12-30T05:18:00.321Z,96351.81
2023-12-30T05:20:28.269Z,96354.69
2023-12-30T05:22:55.853Z,96362.88
2023-12-30T05:25:23.518Z,96358.84
2023-12-30T05:27:51.142Z,96364.72
2023-12-30T05:30:18.944Z,96359.88
2023-12-30T05:32:47.921Z,96358.84
2023-12-30T05:35:15.810Z,96361.50
2023-12-30T05:37:43.396Z,96350.09
2023-12-30T05:40:12.150Z,96355.84
2023-12-30T05:42:39.844Z,96360.31
2023-12-30T05:45:08.823Z,96360.31
2023-12-30T05:47:36.464Z,96361.16
2023-12-30T05:50:07.035Z,96363.41
2023-12-30T05:52:35.358Z,96362.38
2023-12-30T05:55:03.423Z,96365.03
2023-12-30T05:57:32.601Z,96351.78
2023-12-30T06:00:00.815Z,96361.19
2023-12-30T06:02:28.380Z,96365.47
2023-12-30T06:04:56.007Z,96363.84
2023-12-30T06:07:24.940Z,96370.22
2023-12-30T06:09:52.578Z,96367.56
2023-12-30T06:12:20.206Z,96363.28
2023-12-30T06:14:47.801Z,96359.00
2023-12-30T06:17:15.395Z,96367.41
2023-12-30T06:19:43.063Z,96366.38
2023-12-30T06:22:10.718Z,96377.78
2023-12-30T06:24:39.687Z,96376.19
2023-12-30T06:27:07.339Z,96384.13
2023-12-30T06:29:34.925Z,96383.31
2023-12-30T06:32:02.564Z,96374.56
2023-12-30T06:34:30.191Z,96373.97
2023-12-30T06:36:57.961Z,96372.91
2023-12-30T06:39:25.695Z,96378.22
2023-12-30T06:41:56.405Z,96380.44
2023-12-30T06:44:26.742Z,96383.63
2023-12-30T06:46:54.494Z,96389.41
2023-12-30T06:49:22.443Z,96386.25
2023-12-30T06:51:50.134Z,96385.06
2023-12-30T06:54:17.728Z,96391.81
2023-12-30T06:56:45.373Z,96387.56
2023-12-30T06:59:15.892Z,96393.50
2023-12-30T07:01:43.624Z,96382.94
2023-12-30T07:04:11.372Z,96395.44
2023-12-30T07:06:39.015Z,96382.88
2023-12-30T07:09:08.201Z,96391.56
2023-12-30T07:11:36.605Z,96385.44
2023-12-30T07:14:04.268Z,96384.63
2023-12-30T07:16:33.266Z,96385.09
2023-12-30T07:19:01.005Z,96385.78
2023-12-30T07:21:28.629Z,96381.28
2023-12-30T07:23:56.223Z,96382.19
2023-12-30T07:26:23.857Z,96391.91
2023-12-30T07:28:51.454Z,96393.06
2023-12-30T07:31:19.109Z,96396.56
2023-12-30T07:33:48.197Z,96389.47
2023-12-30T07:36:15.869Z,96389.47
2023-12-30T07:38:43.436Z,96391.47
2023-12-30T07:41:15.249Z,96392.50
2023-12-30T07:43:42.891Z,96396.09
2023-12-30T07:46:10.571Z,96399.88
2023-12-30T07:48:38.244Z,96396.97
2023-12-30T07:51:07.390Z,96405.28
2023-12-30T07:53:34.950Z,96413.88
2023-12-30T07:56:02.517Z,96410.75
2023-12-30T07:58:30.120Z,96412.25
2023-12-30T08:00:57.840Z,96410.81
2023-12-30T08:03:25.520Z,96406.72
2023-12-30T08:05:53.231Z,96402.09
2023-12-30T08:08:22.196Z,96403.25
2023-12-30T08:10:49.758Z,96409.22
2023-12-30T08:13:17.703Z,96402.03
2023-12-30T08:15:45.325Z,96401.31
2023-12-30T08:18:13.301Z,96398.41
2023-12-30T08:20:41.138Z,96404.09
2023-12-30T08:23:08.775Z,96407.56
2023-12-30T08:25:38.083Z,96409.75
2023-12-30T08:28:05.906Z,96405.69
2023-12-30T08:30:33.520Z,96412.41
2023-12-30T08:33:05.580Z,96409.84
2023-12-30T08:35:33.597Z,96406.38
2023-12-30T08:38:01.192Z,96411.47
2023-12-30T08:40:28.946Z,96414.22
2023-12-30T08:42:57.936Z,96410.50
2023-12-30T08:45:25.022Z,96399.38
2023-12-30T08:47:53.538Z,96398.06
2023-12-30T08:50:21.312Z,96401.91
2023-12-30T08:52:48.881Z,96392.72
2023-12-30T08:55:16.622Z,96401.50
2023-12-30T08:57:44.340Z,96402.91
2023-12-30T09:00:16.617Z,96405.56
2023-12-30T09:02:47.988Z,96401.03
2023-12-30T09:05:18.636Z,96405.09
2023-12-30T09:07:46.400Z,96405.31
2023-12-30T09:10:14.046Z,96406.44
2023-12-30T09:12:41.638Z,96403.69
2023-12-30T09:15:09.616Z,96409.75
2023-12-30T09:17:38.775Z,96406.75
2023-12-30T09:20:07.240Z,96403.53
2023-12-30T09:22:35.042Z,96399.25
2023-12-30T09:25:02.744Z,96405.59
2023-12-30T09:27:30.402Z,96407.44
2023-12-30T09:29:57.985Z,96408.25
2023-12-30T09:32:25.647Z,96410.59
2023-12-30T09:34:55.232Z,96415.13
2023-12-30T09:37:23.267Z,96415.91
2023-12-30T09:39:51.494Z,96415.13
2023-12-30T09:42:19.094Z,96419.06
2023-12-30T09:44:48.381Z,96417.44
2023-12-30T09:47:16.156Z,96419.31
2023-12-30T09:49:46.175Z,96423.81
2023-12-30T09:52:15.583Z,96422.44
2023-12-30T09:54:48.794Z,96417.13
2023-12-30T09:57:17.890Z,96420.56
2023-12-30T09:59:47.544Z,96420.81
2023-12-30T10:02:15.910Z,96415.47
2023-12-30T10:04:44.061Z,96419.78
2023-12-30T10:07:12.928Z,96417.13
2023-12-30T10:09:42.190Z,96414.44
2023-12-30T10:12:10.676Z,96409.13
2023-12-30T10:14:38.345Z,96407.25
2023-12-30T10:17:06.070Z,96406.47
2023-12-30T10:19:33.770Z,96400.31
2023-12-30T10:22:01.480Z,96407.50
2023-12-30T10:24:29.092Z,96405.91
2023-12-30T10:27:04.205Z,96392.81
2023-12-30T10:29:32.644Z,96387.25
2023-12-30T10:32:05.037Z,96383.50
2023-12-30T10:34:32.940Z,96382.97
2023-12-30T10:37:01.670Z,96373.34
2023-12-30T10:39:31.428Z,96372.53
2023-12-30T10:42:00.369Z,96370.94
2023-12-30T10:44:28.073Z,96365.03
2023-12-30T10:46:57.927Z,96359.69
2023-12-30T10:49:26.995Z,96354.59
2023-12-30T10:51:56.350Z,96348.47
2023-12-30T10:54:34.974Z,96349.75
2023-12-30T10:57:10.796Z,96342.84
2023-12-30T10:59:39.238Z,96342.84
2023-12-30T11:02:08.639Z,96338.78
2023-12-30T11:04:36.540Z,96334.75
2023-12-30T11:07:07.653Z,96337.63
2023-12-30T11:09:35.230Z,96337.88
2023-12-30T11:12:07.026Z,96336.28
2023-12-30T11:14:36.931Z,96333.25
2023-12-30T11:17:05.342Z,96330.84
2023-12-30T11:19:34.452Z,96332.69
2023-12-30T11:22:03.381Z,96331.09
2023-12-30T11:24:31.688Z,96327.06
2023-12-30T11:26:59.691Z,96327.28
2023-12-30T11:29:30.134Z,96320.59
2023-12-30T11:31:59.952Z,96315.50
2023-12-30T11:34:28.395Z,96316.31
2023-12-30T11:37:00.488Z,96301.63
2023-12-30T11:39:31.262Z,96300.81
2023-12-30T11:41:59.615Z,96297.69
2023-12-30T11:44:29.096Z,96295.34
2023-12-30T11:46:57.613Z,96288.38
2023-12-30T11:49:26.942Z,96281.47
2023-12-30T11:52:03.462Z,96288.63
2023-12-30T11:54:31.066Z,96275.31
2023-12-30T11:56:58.931Z,96277.19
2023-12-30T11:59:27.933Z,96272.09
2023-12-30T12:02:07.387Z,96270.47
2023-12-30T12:04:35.268Z,96265.16
2023-12-30T12:07:02.947Z,96269.13
2023-12-30T12:09:30.576Z,96267.50
2023-12-30T12:11:58.197Z,96257.09
2023-12-30T12:14:27.780Z,96258.13
2023-12-30T12:16:55.418Z,96258.94
2023-12-30T12:19:23.062Z,96251.75
2023-12-30T12:21:50.728Z,96250.63
2023-12-30T12:24:18.391Z,96252.25
2023-12-30T12:26:46.051Z,96241.03
2023-12-30T12:29:14.326Z,96246.13
2023-12-30T12:31:48.217Z,96239.16
2023-12-30T12:34:22.538Z,96241.81
2023-12-30T12:36:50.410Z,96234.63
2023-12-30T12:39:18.204Z,96231.97
2023-12-30T12:41:47.390Z,96221.50
2023-12-30T12:44:15.123Z,96223.91
2023-12-30T12:46:42.838Z,96230.53
2023-12-30T12:49:12.057Z,96223.34
2023-12-30T12:51:40.372Z,96221.72
2023-12-30T12:54:08.275Z,96217.22
2023-12-30T12:56:36.314Z,96217.00
2023-12-30T12:59:03.977Z,96213.19
2023-12-30T13:01:31.825Z,96216.41
2023-12-30T13:04:00.289Z,96215.84
2023-12-30T13:06:29.517Z,96209.97
2023-12-30T13:08:57.566Z,96204.06
2023-12-30T13:11:28.361Z,96203.81
2023-12-30T13:13:57.009Z,96197.69
2023-12-30T13:16:25.075Z,96188.91
2023-12-30T13:18:53.315Z,96198.72
2023-12-30T13:21:21.304Z,96196.31
2023-12-30T13:23:51.650Z,96195.50
2023-12-30T13:26:19.833Z,96190.44
2023-12-30T13:28:47.797Z,96182.69
2023-12-30T13:31:19.262Z,96173.91
2023-12-30T13:33:47.066Z,96181.31
2023-12-30T13:36:14.758Z,96184.19
2023-12-30T13:38:45.402Z,96179.13
2023-12-30T13:41:15.562Z,96171.38
2023-12-30T13:43:44.847Z,96173.25
2023-12-30T13:46:33.696Z,96180.66
2023-12-30T13:49:32.576Z,96172.13
2023-12-30T13:52:02.357Z,96172.13
2023-12-30T13:54:30.162Z,96164.38
2023-12-30T13:57:12.445Z,96161.72
2023-12-30T13:59:44.158Z,96163.91
2023-12-30T14:02:12.231Z,96159.84
2023-12-30T14:04:41.440Z,96155.09
2023-12-30T14:07:16.515Z,96149.84
2023-12-30T14:09:50.890Z,96146.47
2023-12-30T14:12:20.892Z,96141.25
2023-12-30T14:14:54.465Z,96145.38
2023-12-30T14:17:23.593Z,96144.47
2023-12-30T14:19:51.298Z,96145.34
2023-12-30T14:22:20.048Z,96140.91
2023-12-30T14:24:47.877Z,96145.50
2023-12-30T14:27:15.732Z,96151.81
2023-12-30T14:29:46.918Z,96147.56
2023-12-30T14:32:15.389Z,96147.34
2023-12-30T14:34:43.329Z,96138.84
2023-12-30T14:37:11.233Z,96148.47
2023-12-30T14:39:39.043Z,96139.69
2023-12-30T14:42:07.107Z,96142.09
2023-12-30T14:44:34.995Z,96141.84
2023-12-30T14:47:04.297Z,96143.44
2023-12-30T14:49:32.036Z,96141.59
2023-12-30T14:51:59.796Z,96138.69
2023-12-30T14:54:27.454Z,96139.50
2023-12-30T14:56:55.376Z,96137.09
2023-12-30T14:59:23.443Z,96141.59
2023-12-30T15:01:52.265Z,96139.75
2023-12-30T15:04:22.506Z,96137.09
2023-12-30T15:06:50.173Z,96135.69
2023-12-30T15:09:18.257Z,96135.47
2023-12-30T15:11:46.609Z,96134.66
2023-12-30T15:14:14.243Z,96127.97
2023-12-30T15:16:41.893Z,96127.16
2023-12-30T15:19:09.580Z,96125.28
2023-12-30T15:21:38.772Z,96125.78
2023-12-30T15:24:07.292Z,96121.84
2023-12-30T15:26:34.868Z,96114.88
2023-12-30T15:29:02.756Z,96121.84
2023-12-30T15:31:30.932Z,96117.00
2023-12-30T15:33:58.879Z,96117.00
2023-12-30T15:36:26.644Z,96122.81
2023-12-30T15:38:56.430Z,96121.19
2023-12-30T15:41:24.144Z,96121.19
2023-12-30T15:43:51.836Z,96127.34
2023-12-30T15:46:19.613Z,96116.69
2023-12-30T15:48:47.335Z,96121.94
2023-12-30T15:51:15.092Z,96126.22
2023-12-30T15:53:42.769Z,96124.59
2023-12-30T15:56:11.800Z,96119.75
2023-12-30T15:58:39.834Z,96123.13
2023-12-30T16:01:23.375Z,96117.81
2023-12-30T16:03:55.136Z,96123.97
2023-12-30T16:06:22.764Z,96120.56
2023-12-30T16:08:50.518Z,96125.47
2023-12-30T16:11:19.510Z,96122.88
2023-12-30T16:13:47.181Z,96113.09
2023-12-30T16:16:17.271Z,96110.25
2023-12-30T16:18:45.023Z,96109.63
2023-12-30T16:21:13.186Z,96107.53
2023-12-30T16:23:40.946Z,96110.00
2023-12-30T16:26:09.991Z,96114.84
2023-12-30T16:28:40.472Z,96111.91
2023-12-30T16:31:08.255Z,96109.31
2023-12-30T16:33:41.482Z,96114.41
2023-12-30T16:36:09.633Z,96112.28
2023-12-30T16:38:38.009Z,96105.34
2023-12-30T16:41:05.908Z,96115.19
2023-12-30T16:43:34.997Z,96098.69
2023-12-30T16:46:04.483Z,96099.44
2023-12-30T16:48:32.158Z,96100.53
2023-12-30T16:50:59.789Z,96099.69
2023-12-30T16:53:27.339Z,96092.53
2023-12-30T16:55:54.960Z,96100.28
2023-12-30T16:58:24.346Z,96091.69
2023-12-30T17:03:22.675Z,96097.03
2023-12-30T17:05:50.291Z,96090.09
2023-12-30T17:08:17.851Z,96089.53
2023-12-30T17:10:45.451Z,96086.63
2023-12-30T17:13:13.082Z,96091.94
2023-12-30T17:15:41.850Z,96090.91
2023-12-30T17:18:10.135Z,96087.69
2023-12-30T17:20:39.349Z,96088.97
2023-12-30T17:23:08.336Z,96081.53
2023-12-30T17:25:36.064Z,96087.94
2023-12-30T17:28:04.025Z,96089.78
2023-12-30T17:30:31.674Z,96080.69
2023-12-30T17:32:59.411Z,96081.72
2023-12-30T17:35:28.175Z,96088.69
2023-12-30T17:37:57.450Z,96082.53
2023-12-30T17:40:25.286Z,96080.94
2023-12-30T17:42:52.915Z,96074.53
2023-12-30T17:45:20.486Z,96079.31
2023-12-30T17:47:50.579Z,96069.44
2023-12-30T17:50:18.475Z,96075.84
2023-12-30T17:52:46.355Z,96069.72
2023-12-30T17:55:16.044Z,96071.00
2023-12-30T17:57:44.190Z,96071.25
2023-12-30T18:00:13.259Z,96072.06
2023-12-30T18:02:40.940Z,96069.66
2023-12-30T18:05:09.235Z,96073.03
2023-12-30T18:07:39.162Z,96069.56
2023-12-30T18:10:07.282Z,96068.44
2023-12-30T18:12:37.625Z,96066.84
2023-12-30T18:15:06.101Z,96064.66
2023-12-30T18:17:33.976Z,96072.66
2023-12-30T18:20:01.778Z,96075.31
2023-12-30T18:22:29.913Z,96064.63
2023-12-30T18:24:58.036Z,96065.41
2023-12-30T18:27:25.622Z,96060.31
2023-12-30T18:29:54.626Z,96055.50
2023-12-30T18:32:22.241Z,96054.69
2023-12-30T18:34:49.837Z,96060.53
2023-12-30T18:37:17.678Z,96053.56
2023-12-30T18:39:45.323Z,96056.72
2023-12-30T18:42:12.941Z,96050.59
2023-12-30T18:44:40.897Z,96056.16
2023-12-30T18:47:09.803Z,96052.69
2023-12-30T18:49:37.474Z,96048.91
2023-12-30T18:52:05.496Z,96055.84
2023-12-30T18:54:33.084Z,96056.31
2023-12-30T18:57:00.660Z,96052.31
2023-12-30T18:59:28.733Z,96054.97
2023-12-30T19:01:56.527Z,96058.94
2023-12-30T19:04:25.583Z,96052.81
2023-12-30T19:06:53.203Z,96050.63
2023-12-30T19:09:20.767Z,96047.19
2023-12-30T19:11:48.371Z,96048.22
2023-12-30T19:14:16.109Z,96050.88
2023-12-30T19:16:43.778Z,96042.34
2023-12-30T19:19:11.421Z,96046.28
2023-12-30T19:21:40.683Z,96043.06
2023-12-30T19:24:09.593Z,96041.47
2023-12-30T19:26:37.622Z,96037.16
2023-12-30T19:29:05.738Z,96040.06
2023-12-30T19:31:33.335Z,96040.06
2023-12-30T19:34:00.928Z,96037.41
2023-12-30T19:36:28.919Z,96037.41
2023-12-30T19:38:57.984Z,96031.00
2023-12-30T19:41:25.673Z,96031.22
2023-12-30T19:43:53.388Z,96025.34
2023-12-30T19:46:21.127Z,96021.88
2023-12-30T19:48:49.753Z,96030.34
2023-12-30T19:51:17.457Z,96025.03
2023-12-30T19:53:45.261Z,96024.47
2023-12-30T19:56:14.535Z,96020.44
2023-12-30T19:58:42.212Z,96021.75
2023-12-30T20:01:16.501Z,96019.09
2023-12-30T20:03:44.458Z,96017.69
2023-12-30T20:06:12.422Z,96021.66
2023-12-30T20:08:40.279Z,96020.84
2023-12-30T20:11:09.468Z,96029.06
2023-12-30T20:13:40.166Z,96017.06
2023-12-30T20:16:08.874Z,96019.97
2023-12-30T20:18:38.401Z,96012.50
2023-12-30T20:21:06.992Z,96011.66
2023-12-30T20:23:35.836Z,96001.50
2023-12-30T20:26:04.803Z,96012.41
2023-12-30T20:28:32.455Z,96015.28
2023-12-30T20:31:04.654Z,96009.41
2023-12-30T20:33:32.560Z,96012.31
2023-12-30T20:36:00.190Z,96012.53
2023-12-30T20:38:27.766Z,96008.50
2023-12-30T20:40:55.440Z,96011.63
2023-12-30T20:43:23.121Z,96001.25
2023-12-30T20:45:50.831Z,95997.22
2023-12-30T20:48:19.960Z,95998.03
2023-12-30T20:50:47.691Z,96002.00
2023-12-30T20:53:17.188Z,96003.03
2023-12-30T20:55:44.876Z,96000.63
2023-12-30T20:58:12.502Z,95996.81
2023-12-30T21:00:40.644Z,95990.72
2023-12-30T21:03:08.259Z,95991.75
2023-12-30T21:05:38.049Z,95982.41
2023-12-30T21:08:06.125Z,95986.09
2023-12-30T21:10:33.699Z,95977.34
2023-12-30T21:13:01.518Z,95976.75
2023-12-30T21:15:29.321Z,95980.72
2023-12-30T21:17:57.009Z,95964.78
2023-12-30T21:20:24.614Z,95972.97
2023-12-30T21:22:55.959Z,95960.16
2023-12-30T21:25:27.351Z,95955.09
2023-12-30T21:27:55.507Z,95952.69
2023-12-30T21:30:25.054Z,95947.59
2023-12-30T21:32:53.343Z,95947.06
2023-12-30T21:35:21.042Z,95943.56
2023-12-30T21:37:48.961Z,95934.25
2023-12-30T21:40:20.326Z,95937.94
2023-12-30T21:42:48.040Z,95937.94
2023-12-30T21:45:15.820Z,95928.59
2023-12-30T21:47:43.453Z,95935.75
2023-12-30T21:50:11.588Z,95934.97
2023-12-30T21:52:39.645Z,95934.13
2023-12-30T21:55:08.093Z,95929.31
2023-12-30T21:57:37.063Z,95926.34
2023-12-30T22:00:05.837Z,95926.34
2023-12-30T22:02:35.029Z,95919.41
2023-12-30T22:05:02.960Z,95918.59
2023-12-30T22:07:30.591Z,95918.03
2023-12-30T22:09:58.402Z,95912.19
2023-12-30T22:12:31.605Z,95914.00
2023-12-30T22:15:00.784Z,95910.78
2023-12-30T22:17:28.558Z,95914.72
2023-12-30T22:19:57.425Z,95907.81
2023-12-30T22:22:25.129Z,95907.25
2023-12-30T22:24:52.732Z,95917.88
2023-12-30T22:27:21.470Z,95911.75
2023-12-30T22:29:49.110Z,95912.25
2023-12-30T22:32:18.013Z,95909.81
2023-12-30T22:34:45.683Z,95912.97
2023-12-30T22:37:13.349Z,95906.03
2023-12-30T22:39:40.934Z,95907.09
2023-12-30T22:42:08.824Z,95902.00
2023-12-30T22:44:38.556Z,95898.56
2023-12-30T22:47:06.737Z,95897.97
2023-12-30T22:49:35.653Z,95892.91
2023-12-30T22:52:03.381Z,95893.72
2023-12-30T22:54:31.003Z,95876.41
2023-12-30T22:56:58.585Z,95865.78
2023-12-30T22:59:26.152Z,95870.53
2023-12-30T23:01:53.754Z,95860.94
2023-12-30T23:04:21.445Z,95857.75
2023-12-30T23:06:50.387Z,95872.28
2023-12-30T23:09:20.070Z,95869.09
2023-12-30T23:11:48.502Z,95854.19
2023-12-30T23:14:16.446Z,95852.00
2023-12-30T23:16:45.615Z,95842.66
2023-12-30T23:19:13.341Z,95841.63
2023-12-30T23:21:40.927Z,95853.56
2023-12-30T23:24:09.877Z,95844.75
2023-12-30T23:26:37.608Z,95837.25
2023-12-30T23:29:05.222Z,95834.81
2023-12-30T23:31:32.834Z,95823.66
2023-12-30T23:34:00.620Z,95818.34
2023-12-30T23:36:28.274Z,95812.47
2023-12-30T23:38:55.844Z,95810.84
2023-12-30T23:41:24.755Z,95801.50
2023-12-30T23:43:53.440Z,95802.56
2023-12-30T23:46:21.074Z,95803.59
2023-12-30T23:48:48.722Z,95794.84
2023-12-30T23:51:16.382Z,95792.44
2023-12-30T23:53:43.994Z,95788.16
2023-12-30T23:56:11.802Z,95785.75
2023-12-30T23:58:40.737Z,95783.31
